Time;durP1;ratioP1;P1;durP2;ratioP2;P2;SDS_P1;SDS_P2;PMS_P1;PMS_P2;Temp;Humidity;BMP_temperature;BMP_pressure;BME280_temperature;BME280_humidity;BME280_pressure;Samples;Min_cycle;Max_cycle;Signal;HPM_P1;HPM_P2
2022/06/20 00:01:18;;;;;;;3.53;1.90;;;;;;;16.46;70.23;98436.34;5029518;28;20057;-52
2022/06/20 00:03:45;;;;;;;2.92;1.50;;;;;;;16.34;70.98;98432.88;5044275;28;20052;-48
2022/06/20 00:06:16;;;;;;;3.85;1.30;;;;;;;16.16;72.15;98415.97;5045793;28;20041;-47
2022/06/20 00:08:42;;;;;;;2.63;1.58;;;;;;;16.15;73.17;98432.63;5030707;28;20075;-46
2022/06/20 00:11:17;;;;;;;3.63;1.58;;;;;;;16.15;73.41;98447.53;5013207;28;20045;-46
2022/06/20 00:13:47;;;;;;;3.05;1.60;;;;;;;16.13;73.45;98438.94;5037445;28;20456;-49
2022/06/20 00:16:16;;;;;;;2.97;1.70;;;;;;;16.16;72.65;98442.19;5047164;28;20504;-49
2022/06/20 00:18:43;;;;;;;4.72;1.55;;;;;;;15.98;73.15;98420.81;5029515;28;20095;-51
2022/06/20 00:21:11;;;;;;;2.95;1.30;;;;;;;16.05;72.67;98445.63;5030241;28;20049;-48
2022/06/20 00:24:03;;;;;;;2.85;1.40;;;;;;;16.05;72.72;98450.03;5046857;28;20037;-47
2022/06/20 00:26:29;;;;;;;2.58;1.20;;;;;;;15.84;72.94;98426.28;5022264;28;20572;-49
2022/06/20 00:28:56;;;;;;;8.20;1.48;;;;;;;15.98;73.52;98456.69;5021614;28;20461;-49
2022/06/20 00:31:22;;;;;;;7.78;1.73;;;;;;;15.97;73.02;98440.09;5010533;28;20541;-52
2022/06/20 00:33:47;;;;;;;4.63;1.60;;;;;;;16.01;73.10;98435.50;5032185;28;20040;-48
2022/06/20 00:36:13;;;;;;;2.53;1.50;;;;;;;15.98;72.36;98417.34;5048648;28;20577;-49
2022/06/20 00:38:40;;;;;;;5.90;2.00;;;;;;;15.99;72.32;98408.53;5048311;28;20114;-47
2022/06/20 00:41:12;;;;;;;3.75;1.70;;;;;;;16.02;71.71;98424.03;5035622;28;20140;-49
2022/06/20 00:43:41;;;;;;;2.72;1.20;;;;;;;15.95;71.11;98410.56;5031933;28;20120;-48
2022/06/20 00:46:37;;;;;;;4.22;1.60;;;;;;;15.92;70.67;98425.69;5029373;28;20076;-49
2022/06/20 00:49:26;;;;;;;4.55;1.73;;;;;;;15.88;70.75;98416.38;5028829;28;20076;-49
2022/06/20 00:52:29;;;;;;;3.20;1.60;;;;;;;15.91;71.17;98429.28;5047235;28;20052;-47
2022/06/20 00:55:25;;;;;;;3.08;1.45;;;;;;;15.82;71.16;98412.44;5032009;28;20095;-49
2022/06/20 00:58:15;;;;;;;7.25;1.80;;;;;;;15.91;71.24;98445.00;5029274;28;20095;-49
2022/06/20 01:00:59;;;;;;;2.88;1.50;;;;;;;15.86;71.83;98465.50;5029486;28;20064;-49
2022/06/20 01:03:49;;;;;;;1.70;1.40;;;;;;;15.88;71.99;98466.19;5059610;28;20479;-50
2022/06/20 01:06:37;;;;;;;6.75;1.60;;;;;;;15.85;72.64;98469.88;5030231;28;20535;-51
2022/06/20 01:09:29;;;;;;;3.78;1.60;;;;;;;15.80;73.40;98473.81;5029722;28;20583;-49
2022/06/20 01:12:16;;;;;;;4.82;1.55;;;;;;;15.76;73.87;98478.41;5028735;28;20052;-45
2022/06/20 01:15:00;;;;;;;1.90;1.20;;;;;;;15.71;74.75;98472.69;5036181;28;20424;-47
2022/06/20 01:17:44;;;;;;;3.95;1.40;;;;;;;15.53;74.96;98453.09;5043343;28;20577;-49
2022/06/20 01:20:35;;;;;;;2.30;1.30;;;;;;;15.63;75.00;98468.03;5034283;28;20643;-49
2022/06/20 01:23:55;;;;;;;6.95;2.20;;;;;;;15.64;75.52;98454.00;5009940;28;20065;-50
2022/06/20 01:27:14;;;;;;;2.40;1.60;;;;;;;15.65;75.38;98450.41;5023681;28;20103;-48
2022/06/20 01:29:59;;;;;;;5.57;1.60;;;;;;;15.68;75.62;98450.19;5020087;28;20566;-47
2022/06/20 01:32:44;;;;;;;2.50;1.48;;;;;;;15.63;76.44;98451.47;5029718;28;20048;-48
2022/06/20 01:38:32;;;;;;;3.58;1.80;;;;;;;15.41;77.44;98456.59;5049078;28;20531;-47
2022/06/20 01:44:20;;;;;;;4.93;1.80;;;;;;;15.39;78.63;98463.72;5039659;28;20052;-49
2022/06/20 01:47:05;;;;;;;3.67;1.92;;;;;;;15.45;79.53;98458.88;5009875;28;20540;-50
2022/06/20 01:49:53;;;;;;;4.57;1.77;;;;;;;15.43;79.82;98457.31;5018762;28;20056;-49
2022/06/20 01:52:39;;;;;;;4.80;1.98;;;;;;;15.40;79.95;98462.75;5046814;28;20091;-48
2022/06/20 01:55:26;;;;;;;3.65;1.75;;;;;;;15.40;79.83;98437.41;5019430;28;20044;-47
2022/06/20 01:58:24;;;;;;;3.70;1.90;;;;;;;15.50;79.63;98442.81;5017568;28;20055;-48
2022/06/20 02:01:11;;;;;;;3.03;1.70;;;;;;;15.42;80.28;98430.28;5028816;28;20092;-50
2022/06/20 02:03:55;;;;;;;1.90;1.30;;;;;;;15.38;80.87;98433.25;5036275;28;20047;-48
2022/06/20 02:06:40;;;;;;;4.72;2.35;;;;;;;15.38;80.10;98433.25;5024168;28;20134;-48
2022/06/20 02:09:24;;;;;;;2.83;1.60;;;;;;;15.47;80.52;98450.91;5045989;28;20084;-49
2022/06/20 02:12:10;;;;;;;4.30;1.83;;;;;;;15.42;80.41;98453.03;5033163;28;20056;-52
2022/06/20 02:14:58;;;;;;;2.95;1.55;;;;;;;15.43;81.03;98452.09;5031923;28;20058;-50
2022/06/20 02:17:43;;;;;;;6.70;2.75;;;;;;;15.38;81.91;98447.19;5043442;28;20095;-48
2022/06/20 02:20:31;;;;;;;3.75;1.88;;;;;;;15.28;83.18;98454.84;5059311;28;20072;-50
2022/06/20 02:23:18;;;;;;;2.80;1.52;;;;;;;15.13;84.63;98465.59;5036309;28;20110;-48
2022/06/20 02:26:04;;;;;;;3.50;1.80;;;;;;;15.01;86.33;98475.19;5041041;28;20048;-47
2022/06/20 02:28:56;;;;;;;3.28;1.77;;;;;;;14.86;87.44;98452.75;5043631;28;20603;-48
2022/06/20 02:31:41;;;;;;;4.75;1.60;;;;;;;14.72;89.08;98455.47;5049301;28;20055;-48
2022/06/20 02:34:28;;;;;;;4.78;1.98;;;;;;;14.67;89.84;98445.34;5059801;28;20116;-47
2022/06/20 02:37:19;;;;;;;4.32;1.88;;;;;;;14.64;90.93;98431.66;5012768;28;20155;-45
2022/06/20 02:40:07;;;;;;;3.88;2.30;;;;;;;14.58;92.19;98443.38;5012764;28;20053;-46
2022/06/20 02:42:59;;;;;;;6.30;2.53;;;;;;;14.58;93.59;98430.31;5046179;28;20067;-47
2022/06/20 02:45:44;;;;;;;4.13;2.42;;;;;;;14.53;94.24;98403.66;5020854;28;20084;-49
2022/06/20 02:48:30;;;;;;;5.30;2.10;;;;;;;14.56;94.94;98402.56;5028794;28;20060;-47
2022/06/20 02:51:20;;;;;;;5.40;2.38;;;;;;;14.63;94.66;98377.66;5018072;28;20053;-46
2022/06/20 02:54:07;;;;;;;8.65;2.75;;;;;;;14.71;94.75;98389.25;5060082;28;20045;-50
2022/06/20 02:56:58;;;;;;;5.80;2.35;;;;;;;14.82;95.17;98406.78;5059191;28;20056;-47
2022/06/20 02:59:52;;;;;;;5.57;2.00;;;;;;;14.92;95.23;98456.69;5053690;28;20440;-46
2022/06/20 03:02:38;;;;;;;4.40;2.25;;;;;;;14.93;94.41;98468.81;5030992;28;20056;-46
2022/06/20 03:05:22;;;;;;;3.60;1.90;;;;;;;14.87;93.92;98449.16;5058534;28;20467;-47
2022/06/20 03:08:08;;;;;;;4.45;2.33;;;;;;;14.88;92.79;98427.28;5030655;28;20088;-47
2022/06/20 03:10:53;;;;;;;2.88;2.10;;;;;;;14.67;92.07;98360.81;5040757;28;20091;-47
2022/06/20 03:13:38;;;;;;;5.00;2.25;;;;;;;14.89;92.25;98347.00;5020037;28;20049;-48
2022/06/20 03:16:22;;;;;;;2.65;2.10;;;;;;;15.01;91.90;98351.34;5016518;28;20305;-46
2022/06/20 03:19:27;;;;;;;5.70;2.20;;;;;;;15.16;90.34;98360.69;5051116;28;20186;-50
2022/06/20 03:22:15;;;;;;;4.68;2.33;;;;;;;15.23;90.49;98411.63;5030897;28;20103;-47
2022/06/20 03:24:59;;;;;;;5.88;2.20;;;;;;;15.17;88.55;98459.22;5060124;28;20488;-50
2022/06/20 03:27:44;;;;;;;3.88;2.08;;;;;;;15.07;89.52;98422.38;5031599;28;20111;-47
2022/06/20 03:30:34;;;;;;;6.03;1.98;;;;;;;14.93;89.33;98364.97;5011763;28;20572;-49
2022/06/20 03:33:21;;;;;;;6.07;2.10;;;;;;;14.96;89.36;98401.41;5036641;28;20047;-46
2022/06/20 03:36:13;;;;;;;3.33;2.13;;;;;;;14.99;89.21;98403.78;5038440;28;20044;-47
2022/06/20 03:38:57;;;;;;;3.50;1.73;;;;;;;15.01;88.91;98401.06;5043034;28;20577;-47
2022/06/20 03:41:43;;;;;;;6.32;2.20;;;;;;;14.94;89.64;98412.94;5050499;28;20055;-47
2022/06/20 03:44:34;;;;;;;3.90;2.03;;;;;;;15.14;88.96;98412.31;5037595;28;20104;-48
2022/06/20 03:47:27;;;;;;;3.45;2.30;;;;;;;15.27;88.27;98440.13;4996589;28;20528;-49
2022/06/20 03:50:11;;;;;;;3.42;2.10;;;;;;;15.34;87.73;98464.06;5056375;28;20048;-46
2022/06/20 03:53:19;;;;;;;4.43;1.80;;;;;;;15.18;87.23;98446.00;5031214;28;20095;-50
2022/06/20 03:56:11;;;;;;;4.38;2.22;;;;;;;15.10;86.99;98476.31;5031317;28;20128;-50
2022/06/20 03:59:03;;;;;;;4.68;2.05;;;;;;;14.95;87.20;98483.50;5035159;28;20200;-51
2022/06/20 04:01:58;;;;;;;5.88;2.38;;;;;;;14.93;87.45;98388.53;5049532;28;20083;-47
2022/06/20 04:04:52;;;;;;;7.45;2.70;;;;;;;15.09;86.70;98347.22;5019700;28;20053;-49
2022/06/20 04:07:42;;;;;;;3.53;2.75;;;;;;;15.30;85.83;98349.19;5012985;28;20552;-47
2022/06/20 04:13:36;;;;;;;3.88;1.90;;;;;;;15.63;84.98;98405.16;5012510;28;20052;-51
2022/06/20 04:16:48;;;;;;;4.95;2.00;;;;;;;15.63;82.42;98409.56;5038457;28;20060;-50
2022/06/20 04:19:38;;;;;;;2.65;1.88;;;;;;;15.54;82.78;98439.91;5023788;28;20557;-47
2022/06/20 04:22:28;;;;;;;4.50;1.90;;;;;;;15.65;82.48;98418.94;5031718;28;20055;-56
2022/06/20 04:25:50;;;;;;;3.95;1.73;;;;;;;15.63;82.07;98413.00;5029612;28;20143;-52
2022/06/20 04:28:46;;;;;;;5.55;2.38;;;;;;;15.59;81.21;98398.47;5031255;28;20068;-48
2022/06/20 04:31:39;;;;;;;6.78;1.88;;;;;;;15.58;81.39;98427.41;5050285;28;20063;-51
2022/06/20 04:34:40;;;;;;;5.72;2.15;;;;;;;15.56;81.12;98435.38;5029104;28;20067;-46
2022/06/20 04:37:34;;;;;;;6.00;2.38;;;;;;;15.60;81.05;98434.19;5056197;28;20091;-47
2022/06/20 04:40:21;;;;;;;3.45;1.95;;;;;;;15.62;81.25;98442.78;5057325;28;20456;-50
2022/06/20 04:43:19;;;;;;;4.93;2.53;;;;;;;15.80;80.85;98452.84;5037994;28;20094;-48
2022/06/20 04:46:46;;;;;;;6.25;2.95;;;;;;;16.15;80.04;98413.44;5031169;28;20048;-48
2022/06/20 04:49:30;;;;;;;3.30;2.17;;;;;;;16.26;78.99;98416.91;5021458;28;20088;-48
2022/06/20 04:52:16;;;;;;;4.30;1.85;;;;;;;16.27;78.20;98412.50;5034002;28;20147;-48
2022/06/20 04:55:00;;;;;;;5.82;2.35;;;;;;;16.25;77.03;98403.91;5039197;28;20052;-48
2022/06/20 04:57:45;;;;;;;3.88;2.03;;;;;;;16.45;76.74;98430.25;5043234;28;20107;-46
2022/06/20 05:00:36;;;;;;;4.85;1.83;;;;;;;16.76;75.61;98422.59;5056841;28;20075;-50
2022/06/20 05:03:23;;;;;;;5.68;2.08;;;;;;;16.88;74.19;98419.00;5056720;28;20060;-49
2022/06/20 05:06:14;;;;;;;4.07;2.00;;;;;;;17.00;73.68;98418.03;5057010;28;20052;-48
2022/06/20 05:09:26;;;;;;;3.65;2.00;;;;;;;17.17;73.48;98433.25;5056030;28;20086;-46
2022/06/20 05:12:24;;;;;;;6.43;2.15;;;;;;;17.19;73.55;98433.13;5010177;28;20060;-47
2022/06/20 05:15:32;;;;;;;6.95;2.47;;;;;;;17.40;73.11;98447.16;5045275;28;20075;-47
2022/06/20 05:18:40;;;;;;;5.00;2.35;;;;;;;17.31;71.71;98440.84;5025174;28;20055;-46
2022/06/20 05:21:28;;;;;;;3.53;1.88;;;;;;;17.53;71.26;98441.72;5056252;28;20057;-46
2022/06/20 05:24:16;;;;;;;5.60;1.80;;;;;;;17.58;69.91;98445.66;5028716;28;20064;-48
2022/06/20 05:27:11;;;;;;;3.55;1.95;;;;;;;17.64;69.16;98441.69;5029328;28;20143;-54
2022/06/20 05:30:00;;;;;;;3.72;1.60;;;;;;;17.62;69.39;98448.88;5056083;28;20047;-50
2022/06/20 05:32:53;;;;;;;5.65;2.00;;;;;;;17.69;69.50;98450.06;5029042;28;20106;-52
2022/06/20 05:35:49;;;;;;;8.32;2.00;;;;;;;17.69;69.55;98479.75;5040722;28;20064;-51
2022/06/20 05:38:36;;;;;;;4.25;1.90;;;;;;;17.25;69.51;98487.78;5033165;28;20070;-47
2022/06/20 05:41:04;;;;;;;6.78;2.03;;;;;;;16.89;70.26;98479.28;5033390;28;20091;-46
2022/06/20 05:43:31;;;;;;;5.18;1.75;;;;;;;16.92;70.28;98499.19;5047971;28;20045;-47
2022/06/20 05:46:04;;;;;;;5.90;1.98;;;;;;;16.96;70.30;98512.94;5038031;28;20044;-48
2022/06/20 05:48:35;;;;;;;6.05;1.85;;;;;;;16.81;70.68;98520.19;5031943;28;20414;-49
2022/06/20 05:51:03;;;;;;;2.22;1.60;;;;;;;16.73;70.93;98528.69;5011812;28;20053;-48
2022/06/20 05:53:42;;;;;;;10.77;3.15;;;;;;;16.86;70.80;98521.50;5023380;28;20029;-46
2022/06/20 05:56:14;;;;;;;2.88;1.70;;;;;;;16.93;70.75;98511.38;5039501;28;20099;-46
2022/06/20 05:58:42;;;;;;;4.75;1.77;;;;;;;17.03;70.61;98512.31;5034030;28;20044;-47
2022/06/20 06:01:15;;;;;;;6.35;2.00;;;;;;;17.22;70.90;98516.91;5030618;28;20053;-46
2022/06/20 06:03:47;;;;;;;8.07;2.90;;;;;;;17.39;70.45;98508.53;5035312;28;20041;-48
2022/06/20 06:06:23;;;;;;;7.05;1.90;;;;;;;17.57;68.89;98508.84;5032218;28;20076;-46
2022/06/20 06:08:55;;;;;;;5.57;2.08;;;;;;;17.57;68.68;98522.81;5063977;28;20100;-48
2022/06/20 06:11:41;;;;;;;7.65;3.33;;;;;;;17.79;68.45;98516.69;5029212;28;20424;-48
2022/06/20 06:14:40;;;;;;;10.63;2.47;;;;;;;18.02;67.88;98506.88;5044390;28;20041;-51
2022/06/20 06:17:11;;;;;;;6.35;2.88;;;;;;;18.23;67.42;98509.50;5030599;28;20110;-50
2022/06/20 06:19:51;;;;;;;6.00;1.90;;;;;;;18.30;66.24;98498.34;5031496;28;20501;-52
2022/06/20 06:22:25;;;;;;;4.13;1.92;;;;;;;18.34;65.68;98501.53;5062328;28;20064;-46
2022/06/20 06:24:58;;;;;;;6.28;2.53;;;;;;;18.43;65.60;98506.00;5045867;28;20049;-49
2022/06/20 06:27:30;;;;;;;6.60;1.90;;;;;;;18.84;64.73;98505.13;5013891;28;20425;-53
2022/06/20 06:30:00;;;;;;;3.63;1.90;;;;;;;19.33;61.97;98491.94;5047653;28;20049;-48
2022/06/20 06:32:48;;;;;;;8.20;1.90;;;;;;;19.41;62.54;98486.00;5051287;28;20045;-47
2022/06/20 06:35:40;;;;;;;4.90;1.70;;;;;;;19.70;60.86;98467.56;5032206;28;20132;-47
2022/06/20 06:38:11;;;;;;;7.15;1.80;;;;;;;20.16;59.61;98486.09;5013880;28;20486;-49
2022/06/20 06:40:49;;;;;;;7.93;1.90;;;;;;;20.52;57.59;98489.78;5003772;28;20094;-49
2022/06/20 06:43:22;;;;;;;4.53;1.80;;;;;;;20.70;56.77;98484.59;5031695;28;20041;-48
2022/06/20 06:45:52;;;;;;;3.30;1.80;;;;;;;21.31;55.59;98486.63;5013211;28;20048;-50
2022/06/20 06:48:37;;;;;;;;;;;;;;;21.88;53.61;98496.75;5030900;28;20145;-50
2022/06/20 06:51:09;;;;;;;7.88;1.50;;;;;;;22.13;52.31;98492.53;5048464;28;19949;-47
2022/06/20 06:53:52;;;;;;;10.77;2.55;;;;;;;23.33;49.95;98493.31;5014637;28;20095;-47
2022/06/20 06:56:35;;;;;;;3.42;1.90;;;;;;;24.79;45.95;98486.16;5029660;28;20039;-47
2022/06/20 06:59:05;;;;;;;6.65;1.77;;;;;;;25.92;43.45;98484.72;5030492;28;20562;-47
2022/06/20 07:01:37;;;;;;;6.70;2.03;;;;;;;27.00;41.25;98479.81;5025933;28;20054;-48
2022/06/20 07:04:07;;;;;;;3.33;1.80;;;;;;;28.27;39.06;98492.44;5026058;28;20136;-47
2022/06/20 07:06:58;;;;;;;7.03;1.83;;;;;;;29.48;36.80;98489.22;5027362;28;20040;-49
2022/06/20 07:09:28;;;;;;;4.32;2.10;;;;;;;30.18;35.29;98487.88;5043066;28;20065;-47
2022/06/20 07:12:05;;;;;;;8.40;2.10;;;;;;;30.84;33.59;98506.59;5047043;28;20037;-46
2022/06/20 07:14:37;;;;;;;3.15;1.60;;;;;;;31.53;32.02;98498.69;5031605;28;20033;-46
2022/06/20 07:17:18;;;;;;;7.85;2.20;;;;;;;32.33;30.21;98497.13;5029020;28;20101;-46
2022/06/20 07:19:47;;;;;;;6.53;1.98;;;;;;;32.21;30.35;98494.34;5028191;28;20099;-47
2022/06/20 07:22:14;;;;;;;3.83;1.73;;;;;;;31.38;31.59;98501.66;5027819;28;20049;-46
2022/06/20 07:24:41;;;;;;;3.65;1.83;;;;;;;32.73;29.53;98501.09;5029738;28;20513;-45
2022/06/20 07:27:11;;;;;;;4.75;1.88;;;;;;;32.42;29.80;98506.56;5058771;28;20038;-46
2022/06/20 07:29:51;;;;;;;5.93;2.20;;;;;;;33.20;28.39;98494.16;5030120;28;20527;-49
2022/06/20 07:32:24;;;;;;;5.65;1.70;;;;;;;32.29;29.25;98496.72;5029255;28;20041;-43
2022/06/20 07:35:03;;;;;;;3.08;1.60;;;;;;;32.21;28.66;98506.97;5029057;28;20052;-46
2022/06/20 07:37:37;;;;;;;5.43;1.70;;;;;;;32.07;28.92;98492.78;5051413;28;20096;-45
2022/06/20 07:40:26;;;;;;;5.53;1.80;;;;;;;31.54;29.95;98513.78;5011828;28;20038;-45
2022/06/20 07:42:54;;;;;;;4.78;1.92;;;;;;;30.81;30.14;98505.16;5052725;28;20057;-46
2022/06/20 07:45:26;;;;;;;4.57;2.00;;;;;;;31.65;28.89;98505.06;5029978;28;20042;-46
2022/06/20 07:47:58;;;;;;;6.82;1.70;;;;;;;30.69;30.14;98507.66;5028681;28;20067;-47
2022/06/20 07:50:35;;;;;;;8.40;3.50;;;;;;;28.69;33.80;98486.13;5011289;28;20497;-47
2022/06/20 07:53:11;;;;;;;5.25;1.60;;;;;;;30.67;31.03;98506.25;5026168;28;20124;-47
2022/06/20 07:55:41;;;;;;;3.65;1.55;;;;;;;32.56;27.82;98508.06;5028228;28;20033;-46
2022/06/20 07:58:12;;;;;;;3.72;1.77;;;;;;;33.62;25.86;98510.41;5050964;28;20064;-47
2022/06/20 08:00:44;;;;;;;6.60;1.73;;;;;;;33.86;26.08;98511.34;5011520;28;20057;-49
2022/06/20 08:03:34;;;;;;;3.63;1.58;;;;;;;33.65;25.60;98509.97;5028872;28;20049;-44
2022/06/20 08:06:12;;;;;;;5.82;1.75;;;;;;;34.40;24.49;98521.88;5024914;28;20080;-48
2022/06/20 08:08:45;;;;;;;5.10;1.70;;;;;;;34.84;24.85;98530.50;4995583;28;20044;-48
2022/06/20 08:14:18;;;;;;;4.30;1.50;;;;;;;36.96;21.66;98506.44;5012572;28;20065;-45
2022/06/20 08:16:44;;;;;;;2.05;1.33;;;;;;;37.15;21.13;98507.84;5028233;28;20574;-47
2022/06/20 08:19:10;;;;;;;3.70;1.67;;;;;;;36.92;21.31;98527.00;5028661;28;20096;-46
2022/06/20 08:21:42;;;;;;;2.63;1.50;;;;;;;36.30;21.61;98527.16;5029323;28;20045;-47
2022/06/20 08:24:15;;;;;;;3.95;1.67;;;;;;;36.16;21.59;98516.91;4994720;28;20124;-46
2022/06/20 08:26:53;;;;;;;6.68;1.80;;;;;;;36.74;20.85;98516.47;5027471;28;20418;-47
2022/06/20 08:29:30;;;;;;;5.35;1.45;;;;;;;37.54;20.46;98516.69;5028071;28;20040;-49
2022/06/20 08:32:03;;;;;;;5.05;1.63;;;;;;;35.24;22.76;98517.03;5026285;28;20033;-49
2022/06/20 08:34:38;;;;;;;8.65;1.83;;;;;;;34.43;23.84;98489.03;5028550;28;20523;-49
2022/06/20 08:37:33;;;;;;;4.20;1.65;;;;;;;34.21;24.68;98514.13;5011614;28;20044;-49
2022/06/20 08:40:36;;;;;;;3.38;1.63;;;;;;;34.52;24.39;98512.97;5028823;28;20059;-48
2022/06/20 08:43:37;;;;;;;4.97;1.70;;;;;;;33.90;24.52;98507.13;5020370;28;20401;-50
2022/06/20 08:46:19;;;;;;;4.82;1.60;;;;;;;32.71;24.44;98518.53;5009137;28;20054;-47
2022/06/20 08:49:23;;;;;;;3.35;1.30;;;;;;;31.35;25.36;98498.59;5028297;28;20075;-47
2022/06/20 08:52:07;;;;;;;4.53;1.05;;;;;;;30.00;27.05;98515.31;5029643;28;20426;-47
2022/06/20 08:54:40;;;;;;;6.45;1.30;;;;;;;29.34;28.17;98509.78;5029959;28;20130;-50
2022/06/20 08:57:30;;;;;;;6.85;3.03;;;;;;;28.84;29.08;98504.78;5061712;28;20131;-47
2022/06/20 08:59:59;;;;;;;10.32;4.80;;;;;;;28.67;28.67;98501.56;5029877;28;20122;-46
2022/06/20 09:03:07;;;;;;;2.22;1.13;;;;;;;28.55;28.23;98498.63;5028670;28;20420;-50
2022/06/20 09:05:45;;;;;;;4.20;1.60;;;;;;;28.31;28.67;98487.56;5029544;28;20064;-49
2022/06/20 09:08:17;;;;;;;4.53;1.20;;;;;;;28.41;29.10;98482.69;5029338;28;20498;-46
2022/06/20 09:11:16;;;;;;;2.88;1.20;;;;;;;28.80;28.92;98496.31;5029735;28;20283;-46
2022/06/20 09:13:56;;;;;;;2.40;1.30;;;;;;;29.34;28.13;98495.56;5032825;28;20053;-47
2022/06/20 09:16:22;;;;;;;3.83;1.25;;;;;;;29.73;27.52;98505.56;5048964;28;20046;-48
2022/06/20 09:19:27;;;;;;;2.60;1.20;;;;;;;29.38;27.33;98496.81;5032635;28;20060;-47
2022/06/20 09:22:04;;;;;;;4.63;1.27;;;;;;;28.69;28.19;98512.88;5033050;28;20224;-49
2022/06/20 09:24:30;;;;;;;4.00;1.17;;;;;;;28.65;28.31;98512.47;5033796;28;20045;-47
2022/06/20 09:27:22;;;;;;;2.20;1.15;;;;;;;28.14;28.72;98503.03;5032335;28;20060;-48
2022/06/20 09:30:06;;;;;;;1.73;1.10;;;;;;;27.49;30.04;98512.00;5033605;28;20037;-48
2022/06/20 09:32:35;;;;;;;2.17;1.30;;;;;;;27.49;30.27;98503.16;5032177;28;20392;-47
2022/06/20 09:35:38;;;;;;;3.83;1.42;;;;;;;27.69;30.28;98499.72;5033580;28;20587;-48
2022/06/20 09:38:24;;;;;;;3.85;1.38;;;;;;;27.65;29.65;98506.47;5013743;28;20053;-46
2022/06/20 09:40:57;;;;;;;5.78;1.50;;;;;;;27.67;30.11;98507.09;5013586;28;20073;-46
2022/06/20 09:43:35;;;;;;;3.55;1.30;;;;;;;27.16;29.63;98497.47;5013711;28;20141;-48
2022/06/20 09:46:21;;;;;;;4.97;0.98;;;;;;;26.44;31.14;98498.06;5027421;28;20050;-46
2022/06/20 09:48:53;;;;;;;4.15;1.20;;;;;;;26.22;30.94;98496.31;5031456;28;20077;-47
2022/06/20 09:51:47;;;;;;;4.25;1.20;;;;;;;25.52;32.05;98501.78;5032922;28;20133;-46
2022/06/20 09:54:17;;;;;;;5.97;1.50;;;;;;;25.42;32.45;98511.00;5031884;28;20037;-47
2022/06/20 09:56:52;;;;;;;1.90;1.10;;;;;;;25.55;32.27;98504.13;5031478;28;20037;-47
2022/06/20 09:59:56;;;;;;;11.90;6.15;;;;;;;25.54;32.91;98507.75;5048031;28;20064;-44
2022/06/20 10:02:26;;;;;;;7.97;3.30;;;;;;;25.68;32.78;98514.19;5032259;28;20538;-48
2022/06/20 10:05:06;;;;;;;4.65;1.20;;;;;;;25.52;32.67;98506.28;5064760;28;20042;-47
2022/06/20 10:07:55;;;;;;;3.70;1.33;;;;;;;25.53;32.53;98507.94;5032229;28;20075;-46
2022/06/20 10:10:31;;;;;;;2.28;1.10;;;;;;;25.14;32.75;98506.16;5064717;28;20029;-47
2022/06/20 10:13:09;;;;;;;5.50;3.17;;;;;;;25.13;33.19;98490.34;5015346;28;20037;-48
2022/06/20 10:15:45;;;;;;;6.55;2.10;;;;;;;25.38;33.26;98504.38;5032749;28;20146;-48
2022/06/20 10:18:27;;;;;;;8.48;3.25;;;;;;;25.65;32.75;98511.88;5015017;28;20191;-48
2022/06/20 10:21:32;;;;;;;4.15;1.05;;;;;;;25.97;32.16;98516.97;5031168;28;20053;-46
2022/06/20 10:24:29;;;;;;;3.72;1.33;;;;;;;25.78;31.97;98511.28;5026214;28;20144;-47
2022/06/20 10:27:00;;;;;;;3.80;1.20;;;;;;;25.82;32.33;98516.06;5031948;28;20053;-48
2022/06/20 10:29:41;;;;;;;2.33;1.20;;;;;;;25.87;32.18;98512.88;5032198;28;20069;-46
2022/06/20 10:32:17;;;;;;;11.75;5.20;;;;;;;26.03;32.88;98516.25;5032335;28;20183;-46
2022/06/20 10:35:11;;;;;;;5.65;1.30;;;;;;;26.00;33.08;98521.94;5064344;28;20046;-48
2022/06/20 10:37:57;;;;;;;3.33;1.40;;;;;;;25.54;32.96;98513.06;5032210;28;20518;-48
2022/06/20 10:40:41;;;;;;;2.42;1.20;;;;;;;25.29;33.36;98504.41;5032169;28;20112;-47
2022/06/20 10:43:14;;;;;;;1.85;0.93;;;;;;;25.11;33.62;98495.03;5031047;28;20148;-45
2022/06/20 10:45:49;;;;;;;2.80;1.00;;;;;;;24.66;34.03;98487.69;5031671;28;20049;-46
2022/06/20 10:48:52;;;;;;;3.58;1.25;;;;;;;24.34;34.47;98502.69;5032156;28;20483;-46
2022/06/20 10:51:42;;;;;;;4.30;1.20;;;;;;;24.42;34.87;98505.38;5031772;28;20064;-50
2022/06/20 10:54:12;;;;;;;3.88;1.35;;;;;;;24.66;34.62;98500.97;5031374;28;20056;-48
2022/06/20 10:56:57;;;;;;;5.55;2.20;;;;;;;24.79;34.90;98499.44;5032054;28;20579;-47
2022/06/20 10:59:57;;;;;;;10.57;4.07;;;;;;;24.95;35.60;98498.59;5031664;28;20517;-48
2022/06/20 11:03:04;;;;;;;6.00;2.80;;;;;;;24.95;35.86;98497.75;5031302;28;20056;-48
2022/06/20 11:05:39;;;;;;;5.40;1.33;;;;;;;25.01;35.59;98497.91;5031121;28;20053;-47
2022/06/20 11:08:34;;;;;;;2.45;1.05;;;;;;;24.57;35.13;98492.19;5029929;28;20044;-45
2022/06/20 11:11:29;;;;;;;8.98;1.38;;;;;;;24.27;35.40;98488.44;5010714;28;20034;-47
2022/06/20 11:13:58;;;;;;;4.53;1.08;;;;;;;23.99;35.89;98495.91;5023262;28;20049;-47
2022/06/20 11:16:46;;;;;;;4.55;1.30;;;;;;;24.23;36.13;98486.31;5031784;28;20052;-49
2022/06/20 11:19:27;;;;;;;2.58;1.00;;;;;;;24.74;35.17;98474.38;5029583;28;20378;-46
2022/06/20 11:22:14;;;;;;;6.00;1.33;;;;;;;24.58;34.82;98480.59;5046228;28;20052;-46
2022/06/20 11:25:19;;;;;;;1.60;0.95;;;;;;;24.27;34.77;98482.31;5030892;28;20481;-49
2022/06/20 11:28:07;;;;;;;4.25;1.25;;;;;;;23.98;35.28;98493.41;5030167;28;20045;-47
2022/06/20 11:31:02;;;;;;;2.42;1.20;;;;;;;24.25;35.55;98486.94;5030991;28;20045;-46
2022/06/20 11:34:01;;;;;;;5.28;1.20;;;;;;;24.38;35.56;98493.41;5030845;28;20049;-46
2022/06/20 11:36:44;;;;;;;3.40;1.23;;;;;;;24.26;35.77;98486.78;5031005;28;20041;-48
2022/06/20 11:39:25;;;;;;;3.78;1.33;;;;;;;24.31;36.31;98489.78;5063249;28;20060;-46
2022/06/20 11:42:13;;;;;;;4.28;1.30;;;;;;;24.37;36.44;98480.28;5046168;28;20042;-45
2022/06/20 11:45:21;;;;;;;4.80;0.95;;;;;;;24.47;35.75;98488.91;5018139;28;20140;-48
2022/06/20 11:47:52;;;;;;;4.85;1.40;;;;;;;24.75;35.45;98489.34;5025209;28;20065;-49
2022/06/20 11:50:36;;;;;;;5.30;1.80;;;;;;;25.39;35.00;98500.69;5018502;28;20053;-48
2022/06/20 11:53:25;;;;;;;2.47;1.20;;;;;;;26.88;32.72;98500.81;5030823;28;20065;-52
2022/06/20 11:56:01;;;;;;;2.42;1.42;;;;;;;27.56;30.80;98499.59;5030679;28;20118;-50
2022/06/20 11:58:32;;;;;;;3.03;1.50;;;;;;;29.05;28.72;98486.75;5029370;28;20071;-46
2022/06/20 12:01:04;;;;;;;5.22;1.30;;;;;;;29.71;27.97;98495.03;5030579;28;20065;-50
2022/06/20 12:04:16;;;;;;;3.90;1.30;;;;;;;30.74;26.60;98493.59;5030461;28;20033;-46
2022/06/20 12:06:47;;;;;;;3.35;1.50;;;;;;;30.84;25.46;98490.47;5029282;28;20079;-48
2022/06/20 12:09:25;;;;;;;5.43;1.58;;;;;;;31.31;25.69;98482.06;5012942;28;20075;-48
2022/06/20 12:12:03;;;;;;;3.63;1.40;;;;;;;31.61;24.60;98482.34;5030556;28;20765;-49
2022/06/20 12:14:39;;;;;;;3.55;1.60;;;;;;;32.24;24.47;98475.06;5030499;28;20029;-51
2022/06/20 12:17:29;;;;;;;3.75;1.50;;;;;;;32.40;23.73;98489.00;5028573;28;20379;-50
2022/06/20 12:23:26;;;;;;;3.08;1.40;;;;;;;31.10;25.43;98485.06;5008330;28;20050;-49
2022/06/20 12:26:16;;;;;;;4.75;1.85;;;;;;;32.57;24.18;98496.28;5034116;28;20611;-46
2022/06/20 12:28:48;;;;;;;4.20;1.80;;;;;;;32.57;23.97;98492.75;5062343;28;20424;-52
2022/06/20 12:31:35;;;;;;;13.27;6.15;;;;;;;31.96;25.29;98488.09;5029099;28;20487;-47
2022/06/20 12:34:19;;;;;;;4.03;1.95;;;;;;;30.68;26.47;98503.31;5028825;28;20118;-49
2022/06/20 12:37:03;;;;;;;7.07;1.58;;;;;;;29.37;27.32;98505.84;5061778;28;20045;-49
2022/06/20 12:39:32;;;;;;;6.88;1.75;;;;;;;28.68;28.63;98494.38;5028974;28;20048;-47
2022/06/20 12:42:21;;;;;;;6.22;2.95;;;;;;;28.51;29.50;98499.22;5030089;28;20041;-46
2022/06/20 12:44:47;;;;;;;6.13;1.40;;;;;;;28.16;29.60;98511.69;5019628;28;20050;-47
2022/06/20 12:47:24;;;;;;;3.25;1.00;;;;;;;27.46;30.36;98511.56;5029820;28;20116;-48
2022/06/20 12:50:02;;;;;;;6.85;1.98;;;;;;;27.49;30.42;98511.16;5029859;28;20099;-50
2022/06/20 12:52:54;;;;;;;4.38;1.02;;;;;;;27.53;30.24;98509.81;5061253;28;20064;-47
2022/06/20 12:55:35;;;;;;;4.28;1.10;;;;;;;27.43;30.36;98494.06;5029850;28;20043;-52
2022/06/20 12:58:25;;;;;;;3.92;1.40;;;;;;;27.17;30.51;98501.75;5061624;28;20037;-48
2022/06/20 13:01:09;;;;;;;6.15;1.13;;;;;;;26.33;31.99;98501.19;5029343;28;20553;-51
2022/06/20 13:04:13;;;;;;;4.20;1.00;;;;;;;25.88;32.85;98498.56;5030140;28;20108;-49
2022/06/20 13:07:01;;;;;;;6.15;1.50;;;;;;;26.38;32.78;98498.00;5028480;28;20437;-50